Terminal Aerodrome Forecast
Issued by NWS

Home | Current Version | Previous Version | Text Only | Print | Product List | Glossary On
Versions: 1 2 3 4 5 6 7 8 9 10 11 12 13 14 15 16 17 18 19 20 21 22 23
000
FTAK31 PANC 291122
TAFAHO
TAF
PAHO 291122Z 2912/3012 07008KT P6SM SCT040 BKN060
     FM292300 10010KT 6SM -SHRA BR BKN025 OVC035
     FM300500 10005KT P6SM VCSH SCT030 OVC040=

USA.gov is the U.S. government's official web portal to all federal, state and local government web resources and services.